sensor_id;sensor_type;location;lat;lon;timestamp;P1;durP1;ratioP1;P2;durP2;ratioP2
37199;SDS011;23096;50.892;16.746;2022-07-23T00:00:59;7.22;;;5.80;;
37199;SDS011;23096;50.892;16.746;2022-07-23T00:03:25;9.90;;;5.67;;
37199;SDS011;23096;50.892;16.746;2022-07-23T00:05:52;6.72;;;5.70;;
37199;SDS011;23096;50.892;16.746;2022-07-23T00:08:18;9.93;;;5.97;;
37199;SDS011;23096;50.892;16.746;2022-07-23T00:10:44;8.70;;;6.12;;
37199;SDS011;23096;50.892;16.746;2022-07-23T00:13:10;8.18;;;5.95;;
37199;SDS011;23096;50.892;16.746;2022-07-23T00:15:37;8.15;;;6.70;;
37199;SDS011;23096;50.892;16.746;2022-07-23T00:18:03;7.97;;;5.72;;
37199;SDS011;23096;50.892;16.746;2022-07-23T00:20:30;5.95;;;5.35;;
37199;SDS011;23096;50.892;16.746;2022-07-23T00:22:56;6.55;;;5.50;;
37199;SDS011;23096;50.892;16.746;2022-07-23T00:25:22;9.38;;;6.47;;
37199;SDS011;23096;50.892;16.746;2022-07-23T00:27:49;6.45;;;5.85;;
37199;SDS011;23096;50.892;16.746;2022-07-23T00:30:15;5.97;;;5.22;;
37199;SDS011;23096;50.892;16.746;2022-07-23T00:35:19;7.03;;;5.45;;
37199;SDS011;23096;50.892;16.746;2022-07-23T00:37:47;7.50;;;6.22;;
37199;SDS011;23096;50.892;16.746;2022-07-23T00:40:14;6.85;;;6.03;;
37199;SDS011;23096;50.892;16.746;2022-07-23T00:42:41;7.28;;;6.00;;
37199;SDS011;23096;50.892;16.746;2022-07-23T00:45:08;7.33;;;5.60;;
37199;SDS011;23096;50.892;16.746;2022-07-23T00:47:35;8.05;;;6.42;;
37199;SDS011;23096;50.892;16.746;2022-07-23T00:50:05;5.90;;;5.30;;
37199;SDS011;23096;50.892;16.746;2022-07-23T00:52:34;6.87;;;6.22;;
37199;SDS011;23096;50.892;16.746;2022-07-23T00:55:01;12.53;;;5.83;;
37199;SDS011;23096;50.892;16.746;2022-07-23T00:57:30;7.08;;;6.17;;
37199;SDS011;23096;50.892;16.746;2022-07-23T00:59:56;7.22;;;5.92;;
37199;SDS011;23096;50.892;16.746;2022-07-23T01:02:28;7.33;;;5.60;;
37199;SDS011;23096;50.892;16.746;2022-07-23T01:04:52;5.90;;;5.35;;
37199;SDS011;23096;50.892;16.746;2022-07-23T01:07:19;7.17;;;6.45;;
37199;SDS011;23096;50.892;16.746;2022-07-23T01:09:46;7.17;;;6.10;;
37199;SDS011;23096;50.892;16.746;2022-07-23T01:12:13;7.03;;;6.33;;
37199;SDS011;23096;50.892;16.746;2022-07-23T01:14:39;7.75;;;6.95;;
37199;SDS011;23096;50.892;16.746;2022-07-23T01:17:05;8.43;;;6.53;;
37199;SDS011;23096;50.892;16.746;2022-07-23T01:19:31;8.23;;;6.05;;
37199;SDS011;23096;50.892;16.746;2022-07-23T01:21:59;20.60;;;6.17;;
37199;SDS011;23096;50.892;16.746;2022-07-23T01:24:28;8.43;;;6.33;;
37199;SDS011;23096;50.892;16.746;2022-07-23T01:26:57;6.20;;;5.40;;
37199;SDS011;23096;50.892;16.746;2022-07-23T01:29:23;6.60;;;6.00;;
37199;SDS011;23096;50.892;16.746;2022-07-23T01:31:49;6.58;;;5.92;;
37199;SDS011;23096;50.892;16.746;2022-07-23T01:34:16;7.80;;;6.50;;
37199;SDS011;23096;50.892;16.746;2022-07-23T01:36:42;7.35;;;5.90;;
37199;SDS011;23096;50.892;16.746;2022-07-23T01:39:10;6.70;;;6.10;;
37199;SDS011;23096;50.892;16.746;2022-07-23T01:41:36;12.80;;;6.47;;
37199;SDS011;23096;50.892;16.746;2022-07-23T01:44:02;7.25;;;6.55;;
37199;SDS011;23096;50.892;16.746;2022-07-23T01:46:30;8.45;;;6.22;;
37199;SDS011;23096;50.892;16.746;2022-07-23T01:48:56;7.67;;;6.03;;
37199;SDS011;23096;50.892;16.746;2022-07-23T01:51:27;6.85;;;6.03;;
37199;SDS011;23096;50.892;16.746;2022-07-23T01:53:55;7.55;;;6.25;;
37199;SDS011;23096;50.892;16.746;2022-07-23T01:56:21;6.50;;;5.67;;
37199;SDS011;23096;50.892;16.746;2022-07-23T01:58:48;7.97;;;6.28;;
37199;SDS011;23096;50.892;16.746;2022-07-23T02:01:15;7.85;;;6.42;;
37199;SDS011;23096;50.892;16.746;2022-07-23T02:03:42;6.45;;;5.78;;
37199;SDS011;23096;50.892;16.746;2022-07-23T02:06:08;8.58;;;6.17;;
37199;SDS011;23096;50.892;16.746;2022-07-23T02:08:35;8.55;;;6.30;;
37199;SDS011;23096;50.892;16.746;2022-07-23T02:11:01;9.03;;;6.30;;
37199;SDS011;23096;50.892;16.746;2022-07-23T02:13:27;9.48;;;6.28;;
37199;SDS011;23096;50.892;16.746;2022-07-23T02:15:54;10.58;;;6.55;;
37199;SDS011;23096;50.892;16.746;2022-07-23T02:18:22;7.62;;;6.53;;
37199;SDS011;23096;50.892;16.746;2022-07-23T02:20:51;9.95;;;7.22;;
37199;SDS011;23096;50.892;16.746;2022-07-23T02:23:21;8.55;;;6.05;;
37199;SDS011;23096;50.892;16.746;2022-07-23T02:25:48;9.30;;;5.83;;
37199;SDS011;23096;50.892;16.746;2022-07-23T02:28:14;6.62;;;6.03;;
37199;SDS011;23096;50.892;16.746;2022-07-23T02:30:42;7.65;;;6.62;;
37199;SDS011;23096;50.892;16.746;2022-07-23T02:33:10;7.12;;;6.37;;
37199;SDS011;23096;50.892;16.746;2022-07-23T02:35:38;6.62;;;5.95;;
37199;SDS011;23096;50.892;16.746;2022-07-23T02:38:06;7.15;;;6.40;;
37199;SDS011;23096;50.892;16.746;2022-07-23T02:40:34;7.10;;;6.40;;
37199;SDS011;23096;50.892;16.746;2022-07-23T02:43:02;9.18;;;6.75;;
37199;SDS011;23096;50.892;16.746;2022-07-23T02:45:29;8.33;;;6.45;;
37199;SDS011;23096;50.892;16.746;2022-07-23T02:47:58;7.72;;;6.62;;
37199;SDS011;23096;50.892;16.746;2022-07-23T02:50:25;7.78;;;5.97;;
37199;SDS011;23096;50.892;16.746;2022-07-23T02:52:55;8.48;;;7.17;;
37199;SDS011;23096;50.892;16.746;2022-07-23T02:55:23;8.88;;;6.72;;
37199;SDS011;23096;50.892;16.746;2022-07-23T02:57:49;8.63;;;6.28;;
37199;SDS011;23096;50.892;16.746;2022-07-23T03:00:16;8.73;;;6.10;;
37199;SDS011;23096;50.892;16.746;2022-07-23T03:02:42;8.30;;;7.00;;
37199;SDS011;23096;50.892;16.746;2022-07-23T03:05:09;9.58;;;6.40;;
37199;SDS011;23096;50.892;16.746;2022-07-23T03:07:35;8.05;;;6.85;;
37199;SDS011;23096;50.892;16.746;2022-07-23T03:10:03;9.10;;;6.47;;
37199;SDS011;23096;50.892;16.746;2022-07-23T03:12:30;7.67;;;6.90;;
37199;SDS011;23096;50.892;16.746;2022-07-23T03:14:56;9.68;;;6.35;;
37199;SDS011;23096;50.892;16.746;2022-07-23T03:17:22;9.60;;;6.87;;
37199;SDS011;23096;50.892;16.746;2022-07-23T03:19:48;7.08;;;6.33;;
37199;SDS011;23096;50.892;16.746;2022-07-23T03:22:14;7.90;;;6.00;;
37199;SDS011;23096;50.892;16.746;2022-07-23T03:24:40;6.37;;;5.80;;
37199;SDS011;23096;50.892;16.746;2022-07-23T03:27:23;6.95;;;6.17;;
37199;SDS011;23096;50.892;16.746;2022-07-23T03:29:54;7.95;;;6.00;;
37199;SDS011;23096;50.892;16.746;2022-07-23T03:32:24;9.80;;;7.12;;
37199;SDS011;23096;50.892;16.746;2022-07-23T03:34:50;8.30;;;6.35;;
37199;SDS011;23096;50.892;16.746;2022-07-23T03:37:17;7.47;;;6.70;;
37199;SDS011;23096;50.892;16.746;2022-07-23T03:39:45;8.50;;;7.03;;
37199;SDS011;23096;50.892;16.746;2022-07-23T03:42:12;7.08;;;6.37;;
37199;SDS011;23096;50.892;16.746;2022-07-23T03:44:38;9.23;;;7.08;;
37199;SDS011;23096;50.892;16.746;2022-07-23T03:47:05;9.88;;;7.08;;
37199;SDS011;23096;50.892;16.746;2022-07-23T03:49:31;7.50;;;6.65;;
37199;SDS011;23096;50.892;16.746;2022-07-23T03:51:58;8.95;;;7.40;;
37199;SDS011;23096;50.892;16.746;2022-07-23T03:54:25;10.58;;;7.30;;
37199;SDS011;23096;50.892;16.746;2022-07-23T03:56:51;8.48;;;6.97;;
37199;SDS011;23096;50.892;16.746;2022-07-23T03:59:17;10.98;;;6.55;;
37199;SDS011;23096;50.892;16.746;2022-07-23T04:01:43;11.22;;;7.40;;
37199;SDS011;23096;50.892;16.746;2022-07-23T04:04:10;7.45;;;6.75;;
37199;SDS011;23096;50.892;16.746;2022-07-23T04:06:37;7.83;;;6.90;;
37199;SDS011;23096;50.892;16.746;2022-07-23T04:09:03;9.05;;;7.75;;
37199;SDS011;23096;50.892;16.746;2022-07-23T04:11:30;11.73;;;7.90;;
37199;SDS011;23096;50.892;16.746;2022-07-23T04:13:57;8.23;;;7.33;;
37199;SDS011;23096;50.892;16.746;2022-07-23T04:16:24;10.40;;;7.67;;
37199;SDS011;23096;50.892;16.746;2022-07-23T04:18:50;11.30;;;6.62;;
37199;SDS011;23096;50.892;16.746;2022-07-23T04:21:18;8.15;;;7.22;;
37199;SDS011;23096;50.892;16.746;2022-07-23T04:23:44;10.25;;;7.78;;
37199;SDS011;23096;50.892;16.746;2022-07-23T04:26:11;7.80;;;7.05;;
37199;SDS011;23096;50.892;16.746;2022-07-23T04:28:37;8.15;;;7.35;;
37199;SDS011;23096;50.892;16.746;2022-07-23T04:31:03;8.80;;;7.22;;
37199;SDS011;23096;50.892;16.746;2022-07-23T04:33:30;10.00;;;8.28;;
37199;SDS011;23096;50.892;16.746;2022-07-23T04:35:57;12.50;;;7.75;;
37199;SDS011;23096;50.892;16.746;2022-07-23T04:38:24;9.98;;;8.83;;
37199;SDS011;23096;50.892;16.746;2022-07-23T04:40:52;9.03;;;8.10;;
37199;SDS011;23096;50.892;16.746;2022-07-23T04:43:18;7.95;;;7.08;;
37199;SDS011;23096;50.892;16.746;2022-07-23T04:45:47;9.83;;;7.50;;
37199;SDS011;23096;50.892;16.746;2022-07-23T04:48:14;8.50;;;7.58;;
37199;SDS011;23096;50.892;16.746;2022-07-23T04:50:40;12.98;;;8.28;;
37199;SDS011;23096;50.892;16.746;2022-07-23T04:53:09;8.58;;;7.67;;
37199;SDS011;23096;50.892;16.746;2022-07-23T04:55:36;11.88;;;10.08;;
37199;SDS011;23096;50.892;16.746;2022-07-23T04:58:02;9.40;;;8.33;;
37199;SDS011;23096;50.892;16.746;2022-07-23T05:00:30;10.05;;;8.20;;
37199;SDS011;23096;50.892;16.746;2022-07-23T05:02:56;12.65;;;8.60;;
37199;SDS011;23096;50.892;16.746;2022-07-23T05:05:23;9.35;;;8.38;;
37199;SDS011;23096;50.892;16.746;2022-07-23T05:07:49;10.58;;;8.50;;
37199;SDS011;23096;50.892;16.746;2022-07-23T05:10:16;17.17;;;8.60;;
37199;SDS011;23096;50.892;16.746;2022-07-23T05:12:42;10.82;;;8.58;;
37199;SDS011;23096;50.892;16.746;2022-07-23T05:15:08;9.98;;;8.58;;
37199;SDS011;23096;50.892;16.746;2022-07-23T05:17:34;9.35;;;8.13;;
37199;SDS011;23096;50.892;16.746;2022-07-23T05:20:02;9.73;;;8.60;;
37199;SDS011;23096;50.892;16.746;2022-07-23T05:22:29;10.48;;;8.25;;
37199;SDS011;23096;50.892;16.746;2022-07-23T05:24:55;12.18;;;8.53;;
37199;SDS011;23096;50.892;16.746;2022-07-23T05:27:21;8.90;;;7.47;;
37199;SDS011;23096;50.892;16.746;2022-07-23T05:29:48;10.72;;;8.15;;
37199;SDS011;23096;50.892;16.746;2022-07-23T05:32:14;9.18;;;8.23;;
37199;SDS011;23096;50.892;16.746;2022-07-23T05:34:42;8.48;;;7.67;;
37199;SDS011;23096;50.892;16.746;2022-07-23T05:37:08;9.83;;;8.08;;
37199;SDS011;23096;50.892;16.746;2022-07-23T05:39:34;8.38;;;7.55;;
37199;SDS011;23096;50.892;16.746;2022-07-23T05:42:01;10.63;;;9.23;;
37199;SDS011;23096;50.892;16.746;2022-07-23T05:44:27;11.60;;;7.92;;
37199;SDS011;23096;50.892;16.746;2022-07-23T05:46:53;9.75;;;8.35;;
37199;SDS011;23096;50.892;16.746;2022-07-23T05:49:21;11.08;;;9.13;;
37199;SDS011;23096;50.892;16.746;2022-07-23T05:51:57;10.55;;;8.53;;
37199;SDS011;23096;50.892;16.746;2022-07-23T05:54:29;11.63;;;9.23;;
37199;SDS011;23096;50.892;16.746;2022-07-23T05:56:55;9.33;;;8.43;;
37199;SDS011;23096;50.892;16.746;2022-07-23T05:59:21;9.35;;;8.43;;
37199;SDS011;23096;50.892;16.746;2022-07-23T06:01:47;13.30;;;9.68;;
37199;SDS011;23096;50.892;16.746;2022-07-23T06:04:15;10.43;;;9.43;;
37199;SDS011;23096;50.892;16.746;2022-07-23T06:06:43;12.55;;;8.88;;
37199;SDS011;23096;50.892;16.746;2022-07-23T06:09:09;13.62;;;8.48;;
37199;SDS011;23096;50.892;16.746;2022-07-23T06:11:38;12.33;;;8.40;;
37199;SDS011;23096;50.892;16.746;2022-07-23T06:14:05;15.30;;;10.63;;
37199;SDS011;23096;50.892;16.746;2022-07-23T06:16:33;12.20;;;9.15;;
37199;SDS011;23096;50.892;16.746;2022-07-23T06:18:59;20.62;;;9.40;;
37199;SDS011;23096;50.892;16.746;2022-07-23T06:21:26;9.43;;;8.28;;
37199;SDS011;23096;50.892;16.746;2022-07-23T06:23:52;10.00;;;8.53;;
37199;SDS011;23096;50.892;16.746;2022-07-23T06:26:18;12.95;;;9.20;;
37199;SDS011;23096;50.892;16.746;2022-07-23T06:28:44;12.07;;;8.48;;
37199;SDS011;23096;50.892;16.746;2022-07-23T06:31:11;12.43;;;8.98;;
37199;SDS011;23096;50.892;16.746;2022-07-23T06:33:37;9.73;;;8.73;;
37199;SDS011;23096;50.892;16.746;2022-07-23T06:36:04;9.05;;;8.23;;
37199;SDS011;23096;50.892;16.746;2022-07-23T06:38:30;10.50;;;8.80;;
37199;SDS011;23096;50.892;16.746;2022-07-23T06:40:56;12.30;;;9.25;;
37199;SDS011;23096;50.892;16.746;2022-07-23T06:43:22;17.87;;;8.93;;
37199;SDS011;23096;50.892;16.746;2022-07-23T06:45:50;11.53;;;9.15;;
37199;SDS011;23096;50.892;16.746;2022-07-23T06:48:17;10.75;;;8.75;;
37199;SDS011;23096;50.892;16.746;2022-07-23T06:50:43;11.73;;;9.10;;
37199;SDS011;23096;50.892;16.746;2022-07-23T06:53:09;9.95;;;8.70;;
37199;SDS011;23096;50.892;16.746;2022-07-23T06:55:37;12.35;;;8.63;;
37199;SDS011;23096;50.892;16.746;2022-07-23T06:58:04;10.35;;;8.73;;
37199;SDS011;23096;50.892;16.746;2022-07-23T07:00:30;10.03;;;9.05;;
37199;SDS011;23096;50.892;16.746;2022-07-23T07:02:57;10.30;;;8.58;;
37199;SDS011;23096;50.892;16.746;2022-07-23T07:05:24;14.43;;;9.75;;
37199;SDS011;23096;50.892;16.746;2022-07-23T07:07:52;12.07;;;8.70;;
37199;SDS011;23096;50.892;16.746;2022-07-23T07:10:18;9.98;;;8.38;;
37199;SDS011;23096;50.892;16.746;2022-07-23T07:12:44;12.55;;;9.03;;
37199;SDS011;23096;50.892;16.746;2022-07-23T07:15:10;14.85;;;8.28;;
37199;SDS011;23096;50.892;16.746;2022-07-23T07:17:37;11.88;;;9.23;;
37199;SDS011;23096;50.892;16.746;2022-07-23T07:20:04;9.18;;;8.23;;
37199;SDS011;23096;50.892;16.746;2022-07-23T07:22:31;13.43;;;8.38;;
37199;SDS011;23096;50.892;16.746;2022-07-23T07:24:57;9.90;;;8.85;;
37199;SDS011;23096;50.892;16.746;2022-07-23T07:27:23;12.65;;;10.05;;
37199;SDS011;23096;50.892;16.746;2022-07-23T07:29:49;12.43;;;9.35;;
37199;SDS011;23096;50.892;16.746;2022-07-23T07:32:15;17.23;;;8.75;;
37199;SDS011;23096;50.892;16.746;2022-07-23T07:34:41;10.08;;;8.20;;
37199;SDS011;23096;50.892;16.746;2022-07-23T07:37:07;11.50;;;9.08;;
37199;SDS011;23096;50.892;16.746;2022-07-23T07:39:33;10.32;;;8.70;;
37199;SDS011;23096;50.892;16.746;2022-07-23T07:42:00;13.62;;;8.70;;
37199;SDS011;23096;50.892;16.746;2022-07-23T07:44:26;11.95;;;9.23;;
37199;SDS011;23096;50.892;16.746;2022-07-23T07:46:52;9.30;;;8.38;;
37199;SDS011;23096;50.892;16.746;2022-07-23T07:49:18;9.43;;;8.10;;
37199;SDS011;23096;50.892;16.746;2022-07-23T07:51:44;19.45;;;8.88;;
37199;SDS011;23096;50.892;16.746;2022-07-23T07:54:11;9.63;;;8.35;;
37199;SDS011;23096;50.892;16.746;2022-07-23T07:56:38;10.63;;;8.18;;
37199;SDS011;23096;50.892;16.746;2022-07-23T07:59:04;11.65;;;8.90;;
37199;SDS011;23096;50.892;16.746;2022-07-23T08:01:31;9.98;;;8.18;;
37199;SDS011;23096;50.892;16.746;2022-07-23T08:03:57;10.98;;;9.55;;
37199;SDS011;23096;50.892;16.746;2022-07-23T08:06:23;9.85;;;8.85;;
37199;SDS011;23096;50.892;16.746;2022-07-23T08:08:49;9.23;;;8.03;;
37199;SDS011;23096;50.892;16.746;2022-07-23T08:11:16;9.45;;;8.43;;
37199;SDS011;23096;50.892;16.746;2022-07-23T08:13:43;9.58;;;8.13;;
37199;SDS011;23096;50.892;16.746;2022-07-23T08:16:11;8.58;;;7.58;;
37199;SDS011;23096;50.892;16.746;2022-07-23T08:18:38;9.80;;;7.33;;
37199;SDS011;23096;50.892;16.746;2022-07-23T08:21:04;12.03;;;7.35;;
37199;SDS011;23096;50.892;16.746;2022-07-23T08:23:31;11.25;;;7.95;;
37199;SDS011;23096;50.892;16.746;2022-07-23T08:25:57;9.98;;;7.17;;
37199;SDS011;23096;50.892;16.746;2022-07-23T08:28:25;10.30;;;6.50;;
37199;SDS011;23096;50.892;16.746;2022-07-23T08:30:51;9.95;;;6.80;;
37199;SDS011;23096;50.892;16.746;2022-07-23T08:33:18;10.15;;;7.12;;
37199;SDS011;23096;50.892;16.746;2022-07-23T08:35:47;9.83;;;6.70;;
37199;SDS011;23096;50.892;16.746;2022-07-23T08:38:16;7.95;;;6.42;;
37199;SDS011;23096;50.892;16.746;2022-07-23T08:40:45;8.23;;;6.83;;
37199;SDS011;23096;50.892;16.746;2022-07-23T08:43:14;10.70;;;7.33;;
37199;SDS011;23096;50.892;16.746;2022-07-23T08:45:50;8.38;;;7.42;;
37199;SDS011;23096;50.892;16.746;2022-07-23T08:48:21;9.23;;;7.58;;
37199;SDS011;23096;50.892;16.746;2022-07-23T08:50:50;7.70;;;6.60;;
37199;SDS011;23096;50.892;16.746;2022-07-23T08:53:20;19.32;;;7.08;;
37199;SDS011;23096;50.892;16.746;2022-07-23T08:55:50;10.08;;;7.97;;
37199;SDS011;23096;50.892;16.746;2022-07-23T08:58:25;9.05;;;7.40;;
37199;SDS011;23096;50.892;16.746;2022-07-23T09:00:51;8.93;;;7.55;;
37199;SDS011;23096;50.892;16.746;2022-07-23T09:03:18;8.18;;;7.35;;
37199;SDS011;23096;50.892;16.746;2022-07-23T09:05:48;9.38;;;7.40;;
37199;SDS011;23096;50.892;16.746;2022-07-23T09:08:17;9.38;;;7.92;;
37199;SDS011;23096;50.892;16.746;2022-07-23T09:10:55;15.97;;;8.77;;
37199;SDS011;23096;50.892;16.746;2022-07-23T09:21:20;12.33;;;7.08;;
37199;SDS011;23096;50.892;16.746;2022-07-23T09:23:59;7.87;;;7.05;;
37199;SDS011;23096;50.892;16.746;2022-07-23T09:26:33;21.70;;;11.50;;
37199;SDS011;23096;50.892;16.746;2022-07-23T09:29:16;9.25;;;7.85;;
37199;SDS011;23096;50.892;16.746;2022-07-23T09:34:25;8.13;;;7.33;;
37199;SDS011;23096;50.892;16.746;2022-07-23T09:37:10;7.15;;;6.40;;
37199;SDS011;23096;50.892;16.746;2022-07-23T09:39:43;12.63;;;8.13;;
37199;SDS011;23096;50.892;16.746;2022-07-23T09:42:21;9.70;;;7.47;;
37199;SDS011;23096;50.892;16.746;2022-07-23T09:44:54;13.43;;;8.75;;
37199;SDS011;23096;50.892;16.746;2022-07-23T09:47:22;10.72;;;8.10;;
37199;SDS011;23096;50.892;16.746;2022-07-23T09:50:01;8.25;;;7.45;;
37199;SDS011;23096;50.892;16.746;2022-07-23T09:52:37;8.98;;;7.22;;
37199;SDS011;23096;50.892;16.746;2022-07-23T09:55:02;8.68;;;7.15;;
37199;SDS011;23096;50.892;16.746;2022-07-23T09:57:31;12.40;;;7.45;;
37199;SDS011;23096;50.892;16.746;2022-07-23T10:00:00;15.18;;;8.63;;
37199;SDS011;23096;50.892;16.746;2022-07-23T10:13:03;11.50;;;9.00;;
37199;SDS011;23096;50.892;16.746;2022-07-23T10:15:41;14.70;;;9.68;;
37199;SDS011;23096;50.892;16.746;2022-07-23T10:18:09;14.65;;;9.38;;
37199;SDS011;23096;50.892;16.746;2022-07-23T10:20:37;11.40;;;8.88;;
37199;SDS011;23096;50.892;16.746;2022-07-23T10:23:10;13.00;;;9.40;;
37199;SDS011;23096;50.892;16.746;2022-07-23T10:25:46;12.35;;;9.45;;
37199;SDS011;23096;50.892;16.746;2022-07-23T10:37:16;10.75;;;8.45;;
37199;SDS011;23096;50.892;16.746;2022-07-23T10:40:08;11.48;;;9.03;;
37199;SDS011;23096;50.892;16.746;2022-07-23T10:42:43;11.05;;;8.10;;
37199;SDS011;23096;50.892;16.746;2022-07-23T10:45:28;14.30;;;10.23;;
37199;SDS011;23096;50.892;16.746;2022-07-23T10:59:24;10.75;;;8.83;;
37199;SDS011;23096;50.892;16.746;2022-07-23T11:01:51;12.75;;;10.00;;
37199;SDS011;23096;50.892;16.746;2022-07-23T11:04:17;11.70;;;10.58;;
37199;SDS011;23096;50.892;16.746;2022-07-23T11:09:27;11.05;;;9.73;;
37199;SDS011;23096;50.892;16.746;2022-07-23T11:15:05;12.98;;;11.08;;
37199;SDS011;23096;50.892;16.746;2022-07-23T11:20:19;12.85;;;10.25;;
37199;SDS011;23096;50.892;16.746;2022-07-23T11:22:49;13.15;;;10.93;;
37199;SDS011;23096;50.892;16.746;2022-07-23T11:28:06;11.68;;;10.45;;
37199;SDS011;23096;50.892;16.746;2022-07-23T11:30:37;11.85;;;10.65;;
37199;SDS011;23096;50.892;16.746;2022-07-23T11:35:39;11.55;;;10.20;;
37199;SDS011;23096;50.892;16.746;2022-07-23T11:40:47;11.35;;;9.85;;
37199;SDS011;23096;50.892;16.746;2022-07-23T11:43:17;11.73;;;10.55;;
37199;SDS011;23096;50.892;16.746;2022-07-23T11:45:46;15.43;;;10.78;;
37199;SDS011;23096;50.892;16.746;2022-07-23T11:48:17;14.18;;;11.70;;
37199;SDS011;23096;50.892;16.746;2022-07-23T11:50:53;12.40;;;10.60;;
37199;SDS011;23096;50.892;16.746;2022-07-23T11:53:24;12.60;;;11.18;;
37199;SDS011;23096;50.892;16.746;2022-07-23T11:56:06;12.47;;;11.18;;
37199;SDS011;23096;50.892;16.746;2022-07-23T11:58:38;13.53;;;11.53;;
37199;SDS011;23096;50.892;16.746;2022-07-23T12:01:05;15.63;;;12.23;;
37199;SDS011;23096;50.892;16.746;2022-07-23T12:03:31;15.93;;;12.10;;
37199;SDS011;23096;50.892;16.746;2022-07-23T12:05:58;16.60;;;12.25;;
37199;SDS011;23096;50.892;16.746;2022-07-23T12:08:25;14.98;;;12.68;;
37199;SDS011;23096;50.892;16.746;2022-07-23T12:10:52;12.78;;;11.53;;
37199;SDS011;23096;50.892;16.746;2022-07-23T12:13:19;12.47;;;11.10;;
37199;SDS011;23096;50.892;16.746;2022-07-23T12:15:49;12.45;;;11.18;;
37199;SDS011;23096;50.892;16.746;2022-07-23T12:18:21;12.70;;;11.35;;
37199;SDS011;23096;50.892;16.746;2022-07-23T12:20:52;17.15;;;12.82;;
37199;SDS011;23096;50.892;16.746;2022-07-23T12:23:23;12.63;;;11.40;;
37199;SDS011;23096;50.892;16.746;2022-07-23T12:26:00;11.90;;;10.32;;
37199;SDS011;23096;50.892;16.746;2022-07-23T12:28:22;14.47;;;11.03;;
37199;SDS011;23096;50.892;16.746;2022-07-23T12:30:53;14.43;;;11.63;;
37199;SDS011;23096;50.892;16.746;2022-07-23T12:36:00;11.40;;;10.20;;
37199;SDS011;23096;50.892;16.746;2022-07-23T12:38:39;11.70;;;10.18;;
37199;SDS011;23096;50.892;16.746;2022-07-23T12:41:09;15.38;;;10.60;;
37199;SDS011;23096;50.892;16.746;2022-07-23T12:43:38;16.80;;;12.05;;
37199;SDS011;23096;50.892;16.746;2022-07-23T12:46:10;13.03;;;11.10;;
37199;SDS011;23096;50.892;16.746;2022-07-23T12:48:50;11.45;;;10.18;;
37199;SDS011;23096;50.892;16.746;2022-07-23T12:51:19;13.08;;;10.68;;
37199;SDS011;23096;50.892;16.746;2022-07-23T12:53:57;14.00;;;11.60;;
37199;SDS011;23096;50.892;16.746;2022-07-23T12:56:30;13.95;;;11.63;;
37199;SDS011;23096;50.892;16.746;2022-07-23T13:01:40;18.85;;;11.43;;
37199;SDS011;23096;50.892;16.746;2022-07-23T13:06:49;14.68;;;10.35;;
37199;SDS011;23096;50.892;16.746;2022-07-23T13:09:18;12.13;;;10.53;;
37199;SDS011;23096;50.892;16.746;2022-07-23T13:11:51;12.68;;;10.58;;
37199;SDS011;23096;50.892;16.746;2022-07-23T13:14:19;11.78;;;9.88;;
37199;SDS011;23096;50.892;16.746;2022-07-23T13:16:49;13.93;;;9.43;;
37199;SDS011;23096;50.892;16.746;2022-07-23T13:19:17;13.78;;;10.10;;
37199;SDS011;23096;50.892;16.746;2022-07-23T13:21:44;11.18;;;9.63;;
37199;SDS011;23096;50.892;16.746;2022-07-23T13:24:11;11.65;;;10.45;;
37199;SDS011;23096;50.892;16.746;2022-07-23T13:26:38;12.95;;;9.73;;
37199;SDS011;23096;50.892;16.746;2022-07-23T13:29:05;11.10;;;9.68;;
37199;SDS011;23096;50.892;16.746;2022-07-23T13:31:32;10.80;;;8.53;;
37199;SDS011;23096;50.892;16.746;2022-07-23T13:33:59;11.20;;;8.60;;
37199;SDS011;23096;50.892;16.746;2022-07-23T13:36:25;9.83;;;8.85;;
37199;SDS011;23096;50.892;16.746;2022-07-23T13:38:51;10.45;;;8.73;;
37199;SDS011;23096;50.892;16.746;2022-07-23T13:41:18;10.15;;;9.08;;
37199;SDS011;23096;50.892;16.746;2022-07-23T13:43:44;9.80;;;8.33;;
37199;SDS011;23096;50.892;16.746;2022-07-23T13:46:11;10.38;;;9.08;;
37199;SDS011;23096;50.892;16.746;2022-07-23T13:48:37;12.20;;;8.93;;
37199;SDS011;23096;50.892;16.746;2022-07-23T13:51:03;12.43;;;9.45;;
37199;SDS011;23096;50.892;16.746;2022-07-23T13:53:29;12.35;;;9.13;;
37199;SDS011;23096;50.892;16.746;2022-07-23T13:55:56;10.03;;;8.90;;
37199;SDS011;23096;50.892;16.746;2022-07-23T13:58:22;15.45;;;9.35;;
37199;SDS011;23096;50.892;16.746;2022-07-23T14:00:50;11.88;;;8.48;;
37199;SDS011;23096;50.892;16.746;2022-07-23T14:03:18;11.57;;;8.78;;
37199;SDS011;23096;50.892;16.746;2022-07-23T14:05:48;12.68;;;8.85;;
37199;SDS011;23096;50.892;16.746;2022-07-23T14:08:15;10.43;;;9.05;;
37199;SDS011;23096;50.892;16.746;2022-07-23T14:10:41;11.50;;;9.60;;
37199;SDS011;23096;50.892;16.746;2022-07-23T14:13:08;10.30;;;9.30;;
37199;SDS011;23096;50.892;16.746;2022-07-23T14:15:34;11.28;;;9.48;;
37199;SDS011;23096;50.892;16.746;2022-07-23T14:18:01;9.10;;;8.18;;
37199;SDS011;23096;50.892;16.746;2022-07-23T14:20:27;10.03;;;9.05;;
37199;SDS011;23096;50.892;16.746;2022-07-23T14:22:53;13.15;;;8.95;;
37199;SDS011;23096;50.892;16.746;2022-07-23T14:25:23;10.25;;;8.63;;
37199;SDS011;23096;50.892;16.746;2022-07-23T14:27:51;9.20;;;8.28;;
37199;SDS011;23096;50.892;16.746;2022-07-23T14:30:18;9.78;;;8.80;;
37199;SDS011;23096;50.892;16.746;2022-07-23T14:32:47;9.38;;;8.53;;
37199;SDS011;23096;50.892;16.746;2022-07-23T14:35:13;10.45;;;8.73;;
37199;SDS011;23096;50.892;16.746;2022-07-23T14:37:47;9.83;;;8.85;;
37199;SDS011;23096;50.892;16.746;2022-07-23T14:40:10;10.45;;;8.88;;
37199;SDS011;23096;50.892;16.746;2022-07-23T14:42:36;10.95;;;9.68;;
37199;SDS011;23096;50.892;16.746;2022-07-23T14:45:03;10.88;;;9.75;;
37199;SDS011;23096;50.892;16.746;2022-07-23T14:47:30;12.23;;;10.88;;
37199;SDS011;23096;50.892;16.746;2022-07-23T14:49:56;12.88;;;9.40;;
37199;SDS011;23096;50.892;16.746;2022-07-23T14:52:22;10.43;;;9.43;;
37199;SDS011;23096;50.892;16.746;2022-07-23T14:54:48;14.28;;;10.75;;
37199;SDS011;23096;50.892;16.746;2022-07-23T14:57:14;15.20;;;10.00;;
37199;SDS011;23096;50.892;16.746;2022-07-23T14:59:40;13.95;;;10.03;;
37199;SDS011;23096;50.892;16.746;2022-07-23T15:02:08;11.68;;;9.40;;
37199;SDS011;23096;50.892;16.746;2022-07-23T15:04:34;12.43;;;10.55;;
37199;SDS011;23096;50.892;16.746;2022-07-23T15:07:00;11.12;;;10.00;;
37199;SDS011;23096;50.892;16.746;2022-07-23T15:09:27;12.25;;;11.03;;
37199;SDS011;23096;50.892;16.746;2022-07-23T15:11:54;11.73;;;10.00;;
37199;SDS011;23096;50.892;16.746;2022-07-23T15:14:20;11.60;;;10.50;;
37199;SDS011;23096;50.892;16.746;2022-07-23T15:16:47;13.53;;;10.72;;
37199;SDS011;23096;50.892;16.746;2022-07-23T15:19:13;11.48;;;10.30;;
37199;SDS011;23096;50.892;16.746;2022-07-23T15:21:39;13.50;;;11.68;;
37199;SDS011;23096;50.892;16.746;2022-07-23T15:24:06;16.02;;;11.68;;
37199;SDS011;23096;50.892;16.746;2022-07-23T15:26:32;14.58;;;11.38;;
37199;SDS011;23096;50.892;16.746;2022-07-23T15:28:59;12.50;;;11.30;;
37199;SDS011;23096;50.892;16.746;2022-07-23T15:31:26;13.38;;;12.07;;
37199;SDS011;23096;50.892;16.746;2022-07-23T15:33:52;13.83;;;12.43;;
37199;SDS011;23096;50.892;16.746;2022-07-23T15:36:19;13.05;;;11.65;;
37199;SDS011;23096;50.892;16.746;2022-07-23T15:38:46;13.45;;;12.15;;